sensor_id;sensor_type;location;lat;lon;timestamp;pressure;altitude;pressure_sealevel;temperature;humidity
32761;BME280;19126;47.472;7.850;2023-04-27T00:00:49;96642.03;;;8.05;74.86
32761;BME280;19126;47.472;7.850;2023-04-27T00:03:16;96644.81;;;8.04;75.51
32761;BME280;19126;47.472;7.850;2023-04-27T00:05:43;96638.75;;;8.03;75.17
32761;BME280;19126;47.472;7.850;2023-04-27T00:08:11;96642.19;;;8.04;75.54
32761;BME280;19126;47.472;7.850;2023-04-27T00:10:38;96643.16;;;8.03;74.71
32761;BME280;19126;47.472;7.850;2023-04-27T00:13:05;96644.66;;;8.05;75.40
32761;BME280;19126;47.472;7.850;2023-04-27T00:15:33;96633.03;;;8.08;75.17
32761;BME280;19126;47.472;7.850;2023-04-27T00:18:01;96628.34;;;8.12;75.74
32761;BME280;19126;47.472;7.850;2023-04-27T00:20:29;96637.16;;;8.11;74.69
32761;BME280;19126;47.472;7.850;2023-04-27T00:22:56;96630.44;;;8.08;74.71
32761;BME280;19126;47.472;7.850;2023-04-27T00:25:23;96629.63;;;8.07;75.89
32761;BME280;19126;47.472;7.850;2023-04-27T00:27:51;96634.53;;;8.11;75.12
32761;BME280;19126;47.472;7.850;2023-04-27T00:30:18;96640.75;;;8.10;75.75
32761;BME280;19126;47.472;7.850;2023-04-27T00:32:45;96648.59;;;8.10;75.43
32761;BME280;19126;47.472;7.850;2023-04-27T00:35:14;96641.09;;;8.15;75.26
32761;BME280;19126;47.472;7.850;2023-04-27T00:37:41;96642.88;;;8.14;74.18
32761;BME280;19126;47.472;7.850;2023-04-27T00:40:09;96646.66;;;8.12;75.06
32761;BME280;19126;47.472;7.850;2023-04-27T00:42:37;96642.06;;;8.14;74.49
32761;BME280;19126;47.472;7.850;2023-04-27T00:45:05;96636.00;;;8.13;74.88
32761;BME280;19126;47.472;7.850;2023-04-27T00:47:33;96643.19;;;8.11;74.74
32761;BME280;19126;47.472;7.850;2023-04-27T00:50:01;96650.06;;;8.12;74.36
32761;BME280;19126;47.472;7.850;2023-04-27T00:52:30;96645.00;;;8.11;74.61
32761;BME280;19126;47.472;7.850;2023-04-27T00:54:57;96653.66;;;8.11;74.54
32761;BME280;19126;47.472;7.850;2023-04-27T00:57:25;96637.97;;;8.11;74.98
32761;BME280;19126;47.472;7.850;2023-04-27T00:59:52;96649.25;;;8.12;73.21
32761;BME280;19126;47.472;7.850;2023-04-27T01:02:20;96658.09;;;8.11;73.61
32761;BME280;19126;47.472;7.850;2023-04-27T01:04:47;96657.13;;;8.20;73.12
32761;BME280;19126;47.472;7.850;2023-04-27T01:07:17;96647.00;;;8.25;72.65
32761;BME280;19126;47.472;7.850;2023-04-27T01:09:46;96645.69;;;8.21;71.56
32761;BME280;19126;47.472;7.850;2023-04-27T01:12:13;96659.25;;;8.16;69.23
32761;BME280;19126;47.472;7.850;2023-04-27T01:14:40;96664.78;;;8.13;67.42
32761;BME280;19126;47.472;7.850;2023-04-27T01:17:07;96658.88;;;8.11;65.86
32761;BME280;19126;47.472;7.850;2023-04-27T01:19:35;96664.13;;;8.11;65.02
32761;BME280;19126;47.472;7.850;2023-04-27T01:22:03;96657.09;;;8.12;65.43
32761;BME280;19126;47.472;7.850;2023-04-27T01:24:33;96659.72;;;8.12;64.24
32761;BME280;19126;47.472;7.850;2023-04-27T01:27:01;96656.28;;;8.11;64.01
32761;BME280;19126;47.472;7.850;2023-04-27T01:29:29;96650.59;;;8.16;63.38
32761;BME280;19126;47.472;7.850;2023-04-27T01:31:56;96648.94;;;8.15;62.64
32761;BME280;19126;47.472;7.850;2023-04-27T01:34:23;96640.91;;;8.16;62.56
32761;BME280;19126;47.472;7.850;2023-04-27T01:36:50;96646.81;;;8.18;63.58
32761;BME280;19126;47.472;7.850;2023-04-27T01:39:18;96652.91;;;8.27;64.16
32761;BME280;19126;47.472;7.850;2023-04-27T01:41:46;96639.81;;;8.27;64.50
32761;BME280;19126;47.472;7.850;2023-04-27T01:44:14;96641.91;;;8.15;62.90
32761;BME280;19126;47.472;7.850;2023-04-27T01:46:41;96645.97;;;8.10;62.99
32761;BME280;19126;47.472;7.850;2023-04-27T01:49:08;96650.38;;;8.09;60.65
32761;BME280;19126;47.472;7.850;2023-04-27T01:51:35;96651.53;;;8.06;60.79
32761;BME280;19126;47.472;7.850;2023-04-27T01:54:03;96650.22;;;8.02;60.13
32761;BME280;19126;47.472;7.850;2023-04-27T01:56:31;96656.41;;;8.01;59.53
32761;BME280;19126;47.472;7.850;2023-04-27T01:58:59;96644.63;;;7.97;60.40
32761;BME280;19126;47.472;7.850;2023-04-27T02:01:27;96651.19;;;8.01;59.83
32761;BME280;19126;47.472;7.850;2023-04-27T02:03:56;96651.31;;;8.00;60.00
32761;BME280;19126;47.472;7.850;2023-04-27T02:06:23;96649.03;;;7.97;60.52
32761;BME280;19126;47.472;7.850;2023-04-27T02:08:50;96648.22;;;7.96;60.13
32761;BME280;19126;47.472;7.850;2023-04-27T02:11:18;96649.19;;;7.95;60.96
32761;BME280;19126;47.472;7.850;2023-04-27T02:13:46;96651.44;;;7.90;60.91
32761;BME280;19126;47.472;7.850;2023-04-27T02:16:15;96654.44;;;7.95;62.11
32761;BME280;19126;47.472;7.850;2023-04-27T02:18:42;96651.44;;;7.90;62.83
32761;BME280;19126;47.472;7.850;2023-04-27T02:21:10;96651.59;;;7.88;62.81
32761;BME280;19126;47.472;7.850;2023-04-27T02:23:37;96646.81;;;7.84;62.85
32761;BME280;19126;47.472;7.850;2023-04-27T02:26:04;96647.81;;;7.83;62.70
32761;BME280;19126;47.472;7.850;2023-04-27T02:28:32;96647.44;;;7.77;62.08
32761;BME280;19126;47.472;7.850;2023-04-27T02:30:59;96652.38;;;7.81;61.91
32761;BME280;19126;47.472;7.850;2023-04-27T02:33:28;96650.41;;;7.83;61.70
32761;BME280;19126;47.472;7.850;2023-04-27T02:35:55;96647.81;;;7.83;61.29
32761;BME280;19126;47.472;7.850;2023-04-27T02:38:22;96656.00;;;7.88;61.12
32761;BME280;19126;47.472;7.850;2023-04-27T02:40:52;96657.50;;;7.90;61.61
32761;BME280;19126;47.472;7.850;2023-04-27T02:43:20;96656.53;;;7.91;62.38
32761;BME280;19126;47.472;7.850;2023-04-27T02:45:48;96657.63;;;7.89;61.55
32761;BME280;19126;47.472;7.850;2023-04-27T02:48:15;96653.03;;;7.83;61.88
32761;BME280;19126;47.472;7.850;2023-04-27T02:50:44;96655.81;;;7.81;62.24
32761;BME280;19126;47.472;7.850;2023-04-27T02:53:12;96653.34;;;7.80;61.62
32761;BME280;19126;47.472;7.850;2023-04-27T02:55:45;96657.09;;;7.77;61.37
32761;BME280;19126;47.472;7.850;2023-04-27T02:58:13;96653.50;;;7.78;61.88
32761;BME280;19126;47.472;7.850;2023-04-27T03:00:40;96647.13;;;7.81;60.98
32761;BME280;19126;47.472;7.850;2023-04-27T03:03:08;96648.78;;;7.82;61.33
32761;BME280;19126;47.472;7.850;2023-04-27T03:05:35;96642.38;;;7.76;60.83
32761;BME280;19126;47.472;7.850;2023-04-27T03:08:04;96636.69;;;7.81;60.76
32761;BME280;19126;47.472;7.850;2023-04-27T03:10:32;96637.16;;;7.76;62.34
32761;BME280;19126;47.472;7.850;2023-04-27T03:12:59;96638.44;;;7.72;61.81
32761;BME280;19126;47.472;7.850;2023-04-27T03:15:26;96644.28;;;7.66;62.95
32761;BME280;19126;47.472;7.850;2023-04-27T03:17:53;96639.56;;;7.69;61.93
32761;BME280;19126;47.472;7.850;2023-04-27T03:20:21;96640.72;;;7.67;62.30
32761;BME280;19126;47.472;7.850;2023-04-27T03:22:48;96635.94;;;7.62;62.71
32761;BME280;19126;47.472;7.850;2023-04-27T03:25:17;96640.97;;;7.55;62.97
32761;BME280;19126;47.472;7.850;2023-04-27T03:27:44;96642.25;;;7.51;62.66
32761;BME280;19126;47.472;7.850;2023-04-27T03:30:13;96639.47;;;7.53;62.61
32761;BME280;19126;47.472;7.850;2023-04-27T03:32:40;96644.34;;;7.47;62.27
32761;BME280;19126;47.472;7.850;2023-04-27T03:35:08;96642.69;;;7.46;61.90
32761;BME280;19126;47.472;7.850;2023-04-27T03:37:35;96647.25;;;7.44;61.54
32761;BME280;19126;47.472;7.850;2023-04-27T03:40:04;96646.28;;;7.45;60.36
32761;BME280;19126;47.472;7.850;2023-04-27T03:42:33;96646.47;;;7.44;60.34
32761;BME280;19126;47.472;7.850;2023-04-27T03:45:01;96652.78;;;7.41;60.13
32761;BME280;19126;47.472;7.850;2023-04-27T03:47:28;96647.75;;;7.40;59.02
32761;BME280;19126;47.472;7.850;2023-04-27T03:49:59;96659.97;;;7.39;58.41
32761;BME280;19126;47.472;7.850;2023-04-27T03:52:26;96653.09;;;7.38;58.77
32761;BME280;19126;47.472;7.850;2023-04-27T03:54:53;96650.50;;;7.38;56.82
32761;BME280;19126;47.472;7.850;2023-04-27T03:57:20;96643.94;;;7.34;56.09
32761;BME280;19126;47.472;7.850;2023-04-27T03:59:49;96653.41;;;7.35;54.55
32761;BME280;19126;47.472;7.850;2023-04-27T04:02:16;96657.84;;;7.35;53.73
32761;BME280;19126;47.472;7.850;2023-04-27T04:04:44;96652.44;;;7.36;53.24
32761;BME280;19126;47.472;7.850;2023-04-27T04:07:11;96649.31;;;7.32;51.90
32761;BME280;19126;47.472;7.850;2023-04-27T04:09:38;96647.81;;;7.30;50.56
32761;BME280;19126;47.472;7.850;2023-04-27T04:12:06;96657.31;;;7.31;49.68
32761;BME280;19126;47.472;7.850;2023-04-27T04:14:33;96666.09;;;7.30;47.79
32761;BME280;19126;47.472;7.850;2023-04-27T04:17:02;96661.97;;;7.45;46.51
32761;BME280;19126;47.472;7.850;2023-04-27T04:19:29;96658.03;;;7.41;46.92
32761;BME280;19126;47.472;7.850;2023-04-27T04:21:56;96655.88;;;7.37;45.75
32761;BME280;19126;47.472;7.850;2023-04-27T04:24:24;96662.88;;;7.36;44.62
32761;BME280;19126;47.472;7.850;2023-04-27T04:26:51;96664.41;;;7.39;43.39
32761;BME280;19126;47.472;7.850;2023-04-27T04:29:18;96661.78;;;7.39;43.06
32761;BME280;19126;47.472;7.850;2023-04-27T04:31:46;96667.66;;;7.41;43.04
32761;BME280;19126;47.472;7.850;2023-04-27T04:34:15;96664.59;;;7.45;41.91
32761;BME280;19126;47.472;7.850;2023-04-27T04:36:44;96659.34;;;7.45;42.62
32761;BME280;19126;47.472;7.850;2023-04-27T04:39:11;96658.38;;;7.46;41.82
32761;BME280;19126;47.472;7.850;2023-04-27T04:41:39;96660.03;;;7.47;41.44
32761;BME280;19126;47.472;7.850;2023-04-27T04:44:07;96662.25;;;7.60;41.94
32761;BME280;19126;47.472;7.850;2023-04-27T04:46:34;96668.09;;;7.54;41.39
32761;BME280;19126;47.472;7.850;2023-04-27T04:49:02;96657.41;;;7.47;41.29
32761;BME280;19126;47.472;7.850;2023-04-27T04:51:30;96670.66;;;7.46;40.40
32761;BME280;19126;47.472;7.850;2023-04-27T04:53:58;96672.13;;;7.48;40.02
32761;BME280;19126;47.472;7.850;2023-04-27T04:56:25;96668.41;;;7.51;39.05
32761;BME280;19126;47.472;7.850;2023-04-27T04:58:52;96666.75;;;7.50;37.82
32761;BME280;19126;47.472;7.850;2023-04-27T05:01:19;96671.16;;;7.50;37.58
32761;BME280;19126;47.472;7.850;2023-04-27T05:03:47;96667.25;;;7.54;37.11
32761;BME280;19126;47.472;7.850;2023-04-27T05:06:14;96676.72;;;7.55;37.52
32761;BME280;19126;47.472;7.850;2023-04-27T05:08:43;96686.88;;;7.58;37.19
32761;BME280;19126;47.472;7.850;2023-04-27T05:11:10;96668.44;;;7.59;37.06
32761;BME280;19126;47.472;7.850;2023-04-27T05:13:37;96673.50;;;7.61;37.46
32761;BME280;19126;47.472;7.850;2023-04-27T05:16:06;96664.53;;;7.63;36.78
32761;BME280;19126;47.472;7.850;2023-04-27T05:18:34;96669.47;;;7.67;36.43
32761;BME280;19126;47.472;7.850;2023-04-27T05:21:02;96670.78;;;7.71;37.04
32761;BME280;19126;47.472;7.850;2023-04-27T05:23:29;96668.72;;;7.83;36.32
32761;BME280;19126;47.472;7.850;2023-04-27T05:25:58;96669.16;;;7.96;37.52
32761;BME280;19126;47.472;7.850;2023-04-27T05:28:25;96669.44;;;7.93;37.16
32761;BME280;19126;47.472;7.850;2023-04-27T05:30:52;96679.59;;;7.96;36.95
32761;BME280;19126;47.472;7.850;2023-04-27T05:33:20;96678.63;;;7.97;37.45
32761;BME280;19126;47.472;7.850;2023-04-27T05:35:47;96684.66;;;7.98;37.96
32761;BME280;19126;47.472;7.850;2023-04-27T05:38:14;96681.91;;;7.99;37.81
32761;BME280;19126;47.472;7.850;2023-04-27T05:40:42;96684.34;;;8.01;38.47
32761;BME280;19126;47.472;7.850;2023-04-27T05:43:11;96675.53;;;8.02;37.88
32761;BME280;19126;47.472;7.850;2023-04-27T05:45:39;96680.31;;;8.06;38.43
32761;BME280;19126;47.472;7.850;2023-04-27T05:48:06;96693.56;;;8.13;38.72
32761;BME280;19126;47.472;7.850;2023-04-27T05:50:34;96685.44;;;8.25;38.43
32761;BME280;19126;47.472;7.850;2023-04-27T05:53:01;96688.28;;;8.40;39.50
32761;BME280;19126;47.472;7.850;2023-04-27T05:55:30;96680.44;;;8.40;40.48
32761;BME280;19126;47.472;7.850;2023-04-27T05:57:58;96683.75;;;8.50;40.51
32761;BME280;19126;47.472;7.850;2023-04-27T06:00:27;96685.09;;;8.62;39.76
32761;BME280;19126;47.472;7.850;2023-04-27T06:02:54;96693.78;;;8.71;41.76
32761;BME280;19126;47.472;7.850;2023-04-27T06:05:22;96700.53;;;8.82;43.63
32761;BME280;19126;47.472;7.850;2023-04-27T06:07:49;96700.03;;;8.95;44.42
32761;BME280;19126;47.472;7.850;2023-04-27T06:10:17;96692.34;;;8.93;47.94
32761;BME280;19126;47.472;7.850;2023-04-27T06:12:44;96693.81;;;8.88;50.02
32761;BME280;19126;47.472;7.850;2023-04-27T06:15:12;96697.91;;;8.82;53.60
32761;BME280;19126;47.472;7.850;2023-04-27T06:17:40;96704.63;;;8.85;53.91
32761;BME280;19126;47.472;7.850;2023-04-27T06:20:09;96703.16;;;8.90;54.43
32761;BME280;19126;47.472;7.850;2023-04-27T06:22:37;96705.47;;;8.93;55.93
32761;BME280;19126;47.472;7.850;2023-04-27T06:25:06;96712.34;;;9.03;55.64
32761;BME280;19126;47.472;7.850;2023-04-27T06:27:33;96712.50;;;9.09;56.00
32761;BME280;19126;47.472;7.850;2023-04-27T06:30:01;96714.16;;;9.19;57.94
32761;BME280;19126;47.472;7.850;2023-04-27T06:32:29;96716.13;;;9.25;60.22
32761;BME280;19126;47.472;7.850;2023-04-27T06:34:58;96723.19;;;9.33;60.78
32761;BME280;19126;47.472;7.850;2023-04-27T06:37:25;96719.25;;;9.37;61.09
32761;BME280;19126;47.472;7.850;2023-04-27T06:39:52;96728.09;;;9.44;61.81
32761;BME280;19126;47.472;7.850;2023-04-27T06:42:20;96723.19;;;9.41;64.85
32761;BME280;19126;47.472;7.850;2023-04-27T06:44:47;96722.38;;;9.41;68.16
32761;BME280;19126;47.472;7.850;2023-04-27T06:47:15;96729.06;;;9.43;72.33
32761;BME280;19126;47.472;7.850;2023-04-27T06:49:42;96731.38;;;9.46;75.60
32761;BME280;19126;47.472;7.850;2023-04-27T06:52:10;96736.63;;;9.55;79.59
32761;BME280;19126;47.472;7.850;2023-04-27T06:54:38;96742.38;;;9.50;81.64
32761;BME280;19126;47.472;7.850;2023-04-27T06:57:05;96739.56;;;9.51;82.11
32761;BME280;19126;47.472;7.850;2023-04-27T06:59:33;96732.84;;;9.57;80.80
32761;BME280;19126;47.472;7.850;2023-04-27T07:02:00;96733.84;;;9.64;78.42
32761;BME280;19126;47.472;7.850;2023-04-27T07:04:28;96737.91;;;9.83;76.71
32761;BME280;19126;47.472;7.850;2023-04-27T07:06:55;96737.53;;;10.03;74.11
32761;BME280;19126;47.472;7.850;2023-04-27T07:09:24;96735.72;;;10.12;75.50
32761;BME280;19126;47.472;7.850;2023-04-27T07:11:53;96734.19;;;10.26;77.26
32761;BME280;19126;47.472;7.850;2023-04-27T07:14:22;96728.56;;;10.46;76.43
32761;BME280;19126;47.472;7.850;2023-04-27T07:16:49;96727.94;;;10.75;73.61
32761;BME280;19126;47.472;7.850;2023-04-27T07:19:16;96731.31;;;10.92;73.81
32761;BME280;19126;47.472;7.850;2023-04-27T07:21:44;96729.47;;;10.93;81.42
32761;BME280;19126;47.472;7.850;2023-04-27T07:24:11;96729.63;;;10.99;84.83
32761;BME280;19126;47.472;7.850;2023-04-27T07:26:40;96731.19;;;11.09;88.41
32761;BME280;19126;47.472;7.850;2023-04-27T07:29:07;96727.75;;;11.08;90.83
32761;BME280;19126;47.472;7.850;2023-04-27T07:31:35;96735.63;;;11.08;94.74
32761;BME280;19126;47.472;7.850;2023-04-27T07:34:02;96734.81;;;11.08;98.87
32761;BME280;19126;47.472;7.850;2023-04-27T07:36:30;96729.91;;;11.05;100.00
32761;BME280;19126;47.472;7.850;2023-04-27T07:38:57;96727.09;;;11.06;100.00
32761;BME280;19126;47.472;7.850;2023-04-27T07:41:25;96719.16;;;11.14;100.00
32761;BME280;19126;47.472;7.850;2023-04-27T07:43:55;96715.31;;;11.25;100.00
32761;BME280;19126;47.472;7.850;2023-04-27T07:46:23;96715.59;;;11.31;100.00
32761;BME280;19126;47.472;7.850;2023-04-27T07:48:51;96709.34;;;11.32;100.00
32761;BME280;19126;47.472;7.850;2023-04-27T07:51:20;96710.72;;;11.42;100.00
32761;BME280;19126;47.472;7.850;2023-04-27T07:53:47;96713.47;;;11.49;100.00
32761;BME280;19126;47.472;7.850;2023-04-27T07:56:14;96708.78;;;11.60;100.00
32761;BME280;19126;47.472;7.850;2023-04-27T07:58:42;96709.78;;;11.73;100.00
32761;BME280;19126;47.472;7.850;2023-04-27T08:01:11;96710.97;;;11.86;100.00
32761;BME280;19126;47.472;7.850;2023-04-27T08:03:38;96709.41;;;12.00;100.00
32761;BME280;19126;47.472;7.850;2023-04-27T08:06:06;96716.75;;;12.50;100.00
32761;BME280;19126;47.472;7.850;2023-04-27T08:08:33;96714.91;;;13.02;100.00
32761;BME280;19126;47.472;7.850;2023-04-27T08:11:01;96717.63;;;13.52;100.00
32761;BME280;19126;47.472;7.850;2023-04-27T08:13:28;96724.38;;;14.18;100.00
32761;BME280;19126;47.472;7.850;2023-04-27T08:15:55;96723.78;;;14.23;100.00
32761;BME280;19126;47.472;7.850;2023-04-27T08:18:25;96711.19;;;14.18;100.00
32761;BME280;19126;47.472;7.850;2023-04-27T08:20:53;96712.75;;;14.13;100.00
32761;BME280;19126;47.472;7.850;2023-04-27T08:23:21;96713.19;;;14.16;100.00
32761;BME280;19126;47.472;7.850;2023-04-27T08:25:48;96704.09;;;14.26;100.00
32761;BME280;19126;47.472;7.850;2023-04-27T08:28:16;96708.38;;;14.33;100.00
32761;BME280;19126;47.472;7.850;2023-04-27T08:30:43;96700.91;;;14.37;100.00
32761;BME280;19126;47.472;7.850;2023-04-27T08:33:11;96705.91;;;14.67;98.71
32761;BME280;19126;47.472;7.850;2023-04-27T08:35:40;96705.25;;;15.20;100.00
32761;BME280;19126;47.472;7.850;2023-04-27T08:38:07;96700.16;;;15.73;98.00
32761;BME280;19126;47.472;7.850;2023-04-27T08:40:35;96690.75;;;16.31;95.96
32761;BME280;19126;47.472;7.850;2023-04-27T08:43:02;96704.00;;;16.31;84.79
32761;BME280;19126;47.472;7.850;2023-04-27T08:45:29;96702.31;;;16.43;81.23
32761;BME280;19126;47.472;7.850;2023-04-27T08:47:57;96695.88;;;16.71;80.31
32761;BME280;19126;47.472;7.850;2023-04-27T08:50:24;96689.06;;;16.82;73.82
32761;BME280;19126;47.472;7.850;2023-04-27T08:52:53;96689.97;;;17.08;74.91
32761;BME280;19126;47.472;7.850;2023-04-27T08:55:21;96687.28;;;17.14;73.48
32761;BME280;19126;47.472;7.850;2023-04-27T08:57:58;96679.34;;;17.14;76.37
32761;BME280;19126;47.472;7.850;2023-04-27T09:00:26;96695.41;;;17.52;72.22
32761;BME280;19126;47.472;7.850;2023-04-27T09:03:04;96694.19;;;17.48;67.84
32761;BME280;19126;47.472;7.850;2023-04-27T09:05:31;96692.47;;;17.35;62.75
32761;BME280;19126;47.472;7.850;2023-04-27T09:08:01;96689.06;;;17.53;66.76
32761;BME280;19126;47.472;7.850;2023-04-27T09:10:45;96690.69;;;17.54;62.96
32761;BME280;19126;47.472;7.850;2023-04-27T09:13:12;96692.41;;;17.41;64.21
32761;BME280;19126;47.472;7.850;2023-04-27T09:15:45;96690.47;;;17.55;71.06
32761;BME280;19126;47.472;7.850;2023-04-27T09:18:15;96690.75;;;17.91;70.09
32761;BME280;19126;47.472;7.850;2023-04-27T09:20:44;96691.69;;;18.41;70.78
32761;BME280;19126;47.472;7.850;2023-04-27T09:23:25;96690.53;;;18.86;66.70
32761;BME280;19126;47.472;7.850;2023-04-27T09:25:53;96698.72;;;19.45;67.98
32761;BME280;19126;47.472;7.850;2023-04-27T09:28:21;96692.31;;;20.01;68.81
32761;BME280;19126;47.472;7.850;2023-04-27T09:30:53;96704.22;;;20.34;67.23
32761;BME280;19126;47.472;7.850;2023-04-27T09:33:24;96698.78;;;20.17;58.77
32761;BME280;19126;47.472;7.850;2023-04-27T09:35:52;96699.25;;;20.26;59.59
32761;BME280;19126;47.472;7.850;2023-04-27T09:38:22;96698.31;;;20.20;63.45
32761;BME280;19126;47.472;7.850;2023-04-27T09:40:51;96696.47;;;20.61;63.92
32761;BME280;19126;47.472;7.850;2023-04-27T09:43:19;96692.97;;;20.85;62.98
32761;BME280;19126;47.472;7.850;2023-04-27T09:45:48;96686.78;;;20.84;58.31
32761;BME280;19126;47.472;7.850;2023-04-27T09:48:16;96696.44;;;20.85;59.62
32761;BME280;19126;47.472;7.850;2023-04-27T09:50:45;96697.56;;;20.89;61.57
32761;BME280;19126;47.472;7.850;2023-04-27T09:53:16;96696.47;;;20.73;60.06
32761;BME280;19126;47.472;7.850;2023-04-27T09:56:08;96698.16;;;20.39;54.05
32761;BME280;19126;47.472;7.850;2023-04-27T09:59:14;96687.59;;;20.44;60.50
32761;BME280;19126;47.472;7.850;2023-04-27T10:01:47;96690.16;;;20.50;57.42
32761;BME280;19126;47.472;7.850;2023-04-27T10:04:32;96688.75;;;20.48;55.36
32761;BME280;19126;47.472;7.850;2023-04-27T10:07:04;96689.69;;;20.42;54.43
32761;BME280;19126;47.472;7.850;2023-04-27T10:09:39;96687.97;;;20.76;56.47
32761;BME280;19126;47.472;7.850;2023-04-27T10:12:17;96688.50;;;21.19;55.98
32761;BME280;19126;47.472;7.850;2023-04-27T10:14:53;96681.59;;;21.06;54.72
32761;BME280;19126;47.472;7.850;2023-04-27T10:17:27;96681.81;;;20.76;52.53
32761;BME280;19126;47.472;7.850;2023-04-27T10:19:57;96679.53;;;20.15;51.01
32761;BME280;19126;47.472;7.850;2023-04-27T10:22:37;96684.72;;;19.50;52.46
32761;BME280;19126;47.472;7.850;2023-04-27T10:25:15;96682.53;;;19.04;53.99
32761;BME280;19126;47.472;7.850;2023-04-27T10:27:48;96672.25;;;19.08;57.17
32761;BME280;19126;47.472;7.850;2023-04-27T10:30:18;96661.97;;;19.24;54.07
32761;BME280;19126;47.472;7.850;2023-04-27T10:32:51;96668.28;;;19.65;55.77
32761;BME280;19126;47.472;7.850;2023-04-27T10:35:19;96675.69;;;19.63;52.94
32761;BME280;19126;47.472;7.850;2023-04-27T10:37:47;96665.94;;;19.69;55.89
32761;BME280;19126;47.472;7.850;2023-04-27T10:40:15;96668.97;;;19.84;54.74
32761;BME280;19126;47.472;7.850;2023-04-27T10:42:46;96671.91;;;19.95;57.23
32761;BME280;19126;47.472;7.850;2023-04-27T10:45:26;96667.00;;;19.80;57.37
32761;BME280;19126;47.472;7.850;2023-04-27T10:47:59;96665.63;;;19.89;59.21
32761;BME280;19126;47.472;7.850;2023-04-27T10:50:27;96664.34;;;20.15;62.76
32761;BME280;19126;47.472;7.850;2023-04-27T10:52:59;96663.16;;;20.35;59.33
32761;BME280;19126;47.472;7.850;2023-04-27T10:55:28;96667.09;;;20.32;58.13
32761;BME280;19126;47.472;7.850;2023-04-27T10:57:58;96662.22;;;20.41;53.70
32761;BME280;19126;47.472;7.850;2023-04-27T11:00:28;96662.06;;;19.95;51.67
32761;BME280;19126;47.472;7.850;2023-04-27T11:02:57;96661.84;;;19.97;51.09
32761;BME280;19126;47.472;7.850;2023-04-27T11:05:35;96659.06;;;19.91;50.09
32761;BME280;19126;47.472;7.850;2023-04-27T11:08:05;96651.84;;;20.04;52.83
32761;BME280;19126;47.472;7.850;2023-04-27T11:10:33;96646.72;;;19.67;51.36
32761;BME280;19126;47.472;7.850;2023-04-27T11:13:12;96651.97;;;19.97;53.90
32761;BME280;19126;47.472;7.850;2023-04-27T11:15:44;96656.00;;;20.24;51.52
32761;BME280;19126;47.472;7.850;2023-04-27T11:18:12;96649.81;;;20.35;50.62
32761;BME280;19126;47.472;7.850;2023-04-27T11:20:40;96639.16;;;20.35;48.46
32761;BME280;19126;47.472;7.850;2023-04-27T11:23:08;96644.31;;;20.54;48.60
32761;BME280;19126;47.472;7.850;2023-04-27T11:25:36;96645.88;;;20.67;50.35
32761;BME280;19126;47.472;7.850;2023-04-27T11:28:04;96641.63;;;21.12;50.23
32761;BME280;19126;47.472;7.850;2023-04-27T11:30:32;96635.94;;;21.08;48.98
32761;BME280;19126;47.472;7.850;2023-04-27T11:33:07;96637.16;;;21.17;49.05
32761;BME280;19126;47.472;7.850;2023-04-27T11:35:35;96633.16;;;21.32;48.93
32761;BME280;19126;47.472;7.850;2023-04-27T11:38:04;96638.31;;;21.73;52.19
32761;BME280;19126;47.472;7.850;2023-04-27T11:40:31;96647.00;;;21.63;47.90
32761;BME280;19126;47.472;7.850;2023-04-27T11:43:01;96640.44;;;21.54;46.03
32761;BME280;19126;47.472;7.850;2023-04-27T11:45:29;96635.47;;;21.62;48.44
32761;BME280;19126;47.472;7.850;2023-04-27T11:47:59;96634.00;;;21.89;50.32
32761;BME280;19126;47.472;7.850;2023-04-27T11:50:28;96640.06;;;22.01;47.83
32761;BME280;19126;47.472;7.850;2023-04-27T11:53:00;96637.28;;;22.35;49.99
32761;BME280;19126;47.472;7.850;2023-04-27T11:55:27;96629.13;;;22.47;49.67
32761;BME280;19126;47.472;7.850;2023-04-27T11:57:57;96630.72;;;22.71;46.15
32761;BME280;19126;47.472;7.850;2023-04-27T12:00:25;96625.28;;;22.88;46.24
32761;BME280;19126;47.472;7.850;2023-04-27T12:02:52;96614.31;;;23.22;47.68
32761;BME280;19126;47.472;7.850;2023-04-27T12:05:21;96615.09;;;23.50;47.68
32761;BME280;19126;47.472;7.850;2023-04-27T12:07:48;96623.09;;;23.45;45.84
32761;BME280;19126;47.472;7.850;2023-04-27T12:10:16;96617.84;;;23.60;46.63
32761;BME280;19126;47.472;7.850;2023-04-27T12:12:43;96625.09;;;23.65;44.09
32761;BME280;19126;47.472;7.850;2023-04-27T12:15:11;96627.59;;;23.06;42.63
32761;BME280;19126;47.472;7.850;2023-04-27T12:17:39;96623.38;;;23.16;46.34
32761;BME280;19126;47.472;7.850;2023-04-27T12:20:08;96624.22;;;23.21;48.78
32761;BME280;19126;47.472;7.850;2023-04-27T12:22:37;96622.78;;;23.41;47.53
32761;BME280;19126;47.472;7.850;2023-04-27T12:25:05;96621.09;;;23.30;47.76
32761;BME280;19126;47.472;7.850;2023-04-27T12:27:32;96622.94;;;23.24;45.88
32761;BME280;19126;47.472;7.850;2023-04-27T12:29:59;96622.16;;;23.29;46.04
32761;BME280;19126;47.472;7.850;2023-04-27T12:32:27;96618.84;;;22.89;46.53
32761;BME280;19126;47.472;7.850;2023-04-27T12:34:54;96626.19;;;22.27;47.49
32761;BME280;19126;47.472;7.850;2023-04-27T12:37:21;96620.78;;;21.99;49.00
32761;BME280;19126;47.472;7.850;2023-04-27T12:39:50;96618.38;;;21.80;48.97
32761;BME280;19126;47.472;7.850;2023-04-27T12:42:17;96615.88;;;21.57;50.53
32761;BME280;19126;47.472;7.850;2023-04-27T12:44:49;96610.63;;;21.45;51.13
32761;BME280;19126;47.472;7.850;2023-04-27T12:47:16;96605.84;;;21.47;49.39
32761;BME280;19126;47.472;7.850;2023-04-27T12:49:43;96617.72;;;21.56;49.53
32761;BME280;19126;47.472;7.850;2023-04-27T12:52:11;96617.91;;;21.66;52.58
32761;BME280;19126;47.472;7.850;2023-04-27T12:54:39;96620.34;;;21.68;52.97
32761;BME280;19126;47.472;7.850;2023-04-27T12:57:08;96615.31;;;21.55;51.53
32761;BME280;19126;47.472;7.850;2023-04-27T12:59:35;96615.31;;;21.55;52.32
32761;BME280;19126;47.472;7.850;2023-04-27T13:02:03;96612.63;;;21.72;50.56
32761;BME280;19126;47.472;7.850;2023-04-27T13:04:31;96605.53;;;22.00;49.63
32761;BME280;19126;47.472;7.850;2023-04-27T13:06:58;96604.66;;;22.38;48.95
32761;BME280;19126;47.472;7.850;2023-04-27T13:09:26;96609.03;;;22.45;46.76
32761;BME280;19126;47.472;7.850;2023-04-27T13:11:53;96606.00;;;22.63;45.81